createdAt,value
2016-08-24T00:00:45.406Z,67.16
2016-08-24T00:01:45.407Z,67.41
2016-08-24T00:02:45.407Z,67.7
2016-08-24T00:03:45.408Z,67.9
2016-08-24T00:04:45.408Z,67.8
2016-08-24T00:05:45.408Z,67.9
2016-08-24T00:06:45.407Z,68.37
2016-08-24T00:07:45.407Z,68.28
2016-08-24T00:08:45.406Z,68.37
2016-08-24T00:09:45.415Z,68.57
2016-08-24T00:10:45.411Z,68.57
2016-08-24T00:11:45.411Z,68.37
2016-08-24T00:12:44.708Z,68.57
2016-08-24T00:13:45.411Z,68.66
2016-08-24T00:14:45.411Z,68.66
2016-08-24T00:15:45.412Z,68.37
2016-08-24T00:16:45.411Z,68.18
2016-08-24T00:17:45.411Z,68.18
2016-08-24T00:18:45.412Z,68.95
2016-08-24T00:19:45.412Z,68.57
2016-08-24T00:20:45.412Z,68.57
2016-08-24T00:21:45.416Z,68.66
2016-08-24T00:22:44.707Z,68.82
2016-08-24T00:23:45.416Z,68.73
2016-08-24T00:24:45.421Z,69.01
2016-08-24T00:25:45.416Z,68.91
2016-08-24T00:26:45.416Z,69.34
2016-08-24T00:27:45.415Z,69.05
2016-08-24T00:28:45.415Z,68.95
2016-08-24T00:29:45.416Z,69.05
2016-08-24T00:30:45.429Z,69.24
2016-08-24T00:31:45.416Z,69.11
2016-08-24T00:32:44.713Z,69.11
2016-08-24T00:33:45.468Z,69.49
2016-08-24T00:34:45.417Z,69.3
2016-08-24T00:35:45.417Z,70.07
2016-08-24T00:36:45.421Z,69.78
2016-08-24T00:37:45.417Z,70.26
2016-08-24T00:38:45.421Z,70.26
2016-08-24T00:39:45.420Z,70.8
2016-08-24T00:40:45.421Z,70.45
2016-08-24T00:41:44.716Z,70.55
2016-08-24T00:42:45.421Z,70.55
2016-08-24T00:43:45.421Z,71.22
2016-08-24T00:44:45.421Z,71.09
2016-08-24T00:45:58.156Z,71.12
2016-08-24T00:46:45.421Z,70.9
2016-08-24T00:47:44.717Z,71.09
2016-08-24T00:48:44.717Z,71.37
2016-08-24T00:49:45.421Z,71.57
2016-08-24T00:50:45.421Z,71.86
2016-08-24T00:51:45.421Z,72.24
2016-08-24T00:52:45.421Z,72.14
2016-08-24T00:53:44.721Z,71.86
2016-08-24T00:54:45.425Z,71.86
2016-08-24T00:55:45.421Z,72.14
2016-08-24T00:56:45.432Z,72.63
2016-08-24T00:57:45.425Z,72.72
2016-08-24T00:58:45.425Z,72.72
2016-08-24T00:59:45.425Z,72.91
2016-08-24T01:00:45.426Z,72.81
2016-08-24T01:01:45.426Z,72.91
2016-08-24T01:02:45.426Z,72.91
2016-08-24T01:03:45.426Z,72.53
2016-08-24T01:04:45.427Z,73.1
2016-08-24T01:05:45.425Z,72.91
2016-08-24T01:06:44.725Z,73.1
2016-08-24T01:07:45.424Z,72.91
2016-08-24T01:08:45.425Z,73.2
2016-08-24T01:09:45.426Z,73.49
2016-08-24T01:10:45.426Z,73.74
2016-08-24T01:11:45.425Z,74.02
2016-08-24T01:12:45.425Z,73.65
2016-08-24T01:13:45.434Z,74.12
2016-08-24T01:14:45.426Z,74.41
2016-08-24T01:15:45.425Z,74.69
2016-08-24T01:16:45.429Z,74.98
2016-08-24T01:17:45.425Z,75.18
2016-08-24T01:18:45.425Z,74.95
2016-08-24T01:19:45.429Z,75.52
2016-08-24T01:20:45.425Z,75.52
2016-08-24T01:21:45.429Z,76.1
2016-08-24T01:22:44.725Z,75.81
2016-08-24T01:23:45.430Z,76.29
2016-08-24T01:24:45.429Z,76.48
2016-08-24T01:25:45.430Z,76.86
2016-08-24T01:26:45.429Z,77.44
2016-08-24T01:27:45.430Z,77.02
2016-08-24T01:28:45.430Z,77.59
2016-08-24T01:29:45.429Z,77.88
2016-08-24T01:30:45.430Z,78.27
2016-08-24T01:31:45.430Z,78.55
2016-08-24T01:32:45.430Z,78.45
2016-08-24T01:33:45.430Z,78.84
2016-08-24T01:34:45.431Z,78.93
2016-08-24T01:35:45.431Z,79.03
2016-08-24T01:36:45.430Z,79.13
2016-08-24T01:37:45.430Z,79.7
2016-08-24T01:38:45.429Z,79.7
2016-08-24T01:39:45.429Z,79.57
2016-08-24T01:40:45.430Z,79.85
2016-08-24T01:41:45.431Z,79.75
2016-08-24T01:42:45.431Z,80.52
2016-08-24T01:43:45.430Z,80.24
2016-08-24T01:44:45.431Z,80.52
2016-08-24T01:45:44.727Z,80.81
2016-08-24T01:46:45.431Z,80.52
2016-08-24T01:47:45.430Z,81.1
2016-08-24T01:48:45.430Z,80.96
2016-08-24T01:49:45.431Z,81.34
2016-08-24T01:50:45.430Z,81.54
2016-08-24T01:51:45.431Z,81.44
2016-08-24T01:52:45.431Z,82.01
2016-08-24T01:53:45.431Z,82.01
2016-08-24T01:54:45.431Z,82.3
2016-08-24T01:55:45.431Z,82.11
2016-08-24T01:56:45.431Z,83.26
2016-08-24T01:57:45.431Z,82.87
2016-08-24T01:58:45.431Z,82.78
2016-08-24T01:59:45.431Z,83.26
2016-08-24T02:00:45.431Z,83.06
2016-08-24T02:01:45.431Z,83.26
2016-08-24T02:02:45.431Z,83.54
2016-08-24T02:03:45.432Z,83.54
2016-08-24T02:04:44.727Z,83.54
2016-08-24T02:05:45.431Z,83.83
2016-08-24T02:06:45.432Z,84.41
2016-08-24T02:07:45.431Z,84.31
2016-08-24T02:08:45.431Z,84.22
2016-08-24T02:09:45.432Z,84.5
2016-08-24T02:10:45.431Z,84.36
2016-08-24T02:11:45.432Z,84.46
2016-08-24T02:12:44.728Z,84.94
2016-08-24T02:13:45.433Z,84.69
2016-08-24T02:14:45.432Z,85.03
2016-08-24T02:15:44.728Z,85.36
2016-08-24T02:16:45.432Z,85.03
2016-08-24T02:17:45.431Z,85.13
2016-08-24T02:18:45.431Z,85.55
2016-08-24T02:19:45.431Z,85.32
2016-08-24T02:20:44.728Z,85.46
2016-08-24T02:21:45.432Z,85.55
2016-08-24T02:22:45.431Z,85.71
2016-08-24T02:23:45.432Z,85.51
2016-08-24T02:24:45.431Z,85.22
2016-08-24T02:25:45.431Z,85.8
2016-08-24T02:26:45.432Z,86.08
2016-08-24T02:27:45.432Z,85.99
2016-08-24T02:28:45.431Z,86.08
2016-08-24T02:29:45.432Z,86.18
2016-08-24T02:30:45.432Z,86.66
2016-08-24T02:31:45.432Z,86.37
2016-08-24T02:32:45.432Z,86.37
2016-08-24T02:33:44.977Z,86.08
2016-08-24T02:34:45.428Z,86.37
2016-08-24T02:35:45.428Z,86.08
2016-08-24T02:36:44.724Z,86.57
2016-08-24T02:37:45.429Z,86.76
2016-08-24T02:38:45.429Z,87.14
2016-08-24T02:39:45.432Z,86.94
2016-08-24T02:40:45.429Z,86.76
2016-08-24T02:41:45.435Z,86.94
2016-08-24T02:42:45.432Z,86.76
2016-08-24T02:43:45.428Z,87.52
2016-08-24T02:44:45.437Z,87.38
2016-08-24T02:45:45.429Z,87.14
2016-08-24T02:46:45.436Z,87.86
2016-08-24T02:47:45.429Z,87.81
2016-08-24T02:48:45.429Z,87.81
2016-08-24T02:49:45.436Z,87.62
2016-08-24T02:50:44.724Z,87.43
2016-08-24T02:51:45.429Z,87.48
2016-08-24T02:52:45.425Z,87.95
2016-08-24T02:53:45.426Z,87.48
2016-08-24T02:54:45.429Z,87.86
2016-08-24T02:55:45.428Z,88.15
2016-08-24T02:56:45.427Z,88.15
2016-08-24T02:57:45.426Z,88.43
2016-08-24T02:58:45.429Z,88.43
2016-08-24T02:59:45.427Z,88.53
2016-08-24T03:00:45.427Z,88.24
2016-08-24T03:01:45.437Z,88.81
2016-08-24T03:02:45.435Z,88.91
2016-08-24T03:03:45.425Z,89.01
2016-08-24T03:04:45.426Z,88.72
2016-08-24T03:05:45.424Z,88.81
2016-08-24T03:06:45.431Z,89.1
2016-08-24T03:07:45.424Z,89.1
2016-08-24T03:08:44.724Z,89.29
2016-08-24T03:09:45.425Z,89.15
2016-08-24T03:10:45.421Z,89.67
2016-08-24T03:11:45.421Z,89.53
2016-08-24T03:12:45.422Z,89.34
2016-08-24T03:13:45.421Z,89.63
2016-08-24T03:14:45.421Z,89.29
2016-08-24T03:15:45.422Z,89.63
2016-08-24T03:16:45.423Z,89.92
2016-08-24T03:17:45.421Z,89.92
2016-08-24T03:18:45.422Z,89.63
2016-08-24T03:19:45.437Z,89.92
2016-08-24T03:20:45.422Z,90.11
2016-08-24T03:21:44.718Z,89.82
2016-08-24T03:22:45.417Z,89.92
2016-08-24T03:23:45.417Z,90.11
2016-08-24T03:24:45.418Z,90.49
2016-08-24T03:25:45.417Z,90.39
2016-08-24T03:26:45.417Z,90.78
2016-08-24T03:27:45.419Z,90.97
2016-08-24T03:28:45.430Z,90.49
2016-08-24T03:29:45.417Z,90.78
2016-08-24T03:30:45.418Z,90.68
2016-08-24T03:31:45.418Z,90.78
2016-08-24T03:32:45.413Z,91.45
2016-08-24T03:33:45.414Z,91.06
2016-08-24T03:34:45.414Z,90.97
2016-08-24T03:35:45.413Z,90.97
2016-08-24T03:36:45.415Z,91.06
2016-08-24T03:37:45.414Z,91.06
2016-08-24T03:38:45.416Z,91.25
2016-08-24T03:39:45.425Z,91.35
2016-08-24T03:40:45.414Z,91.06
2016-08-24T03:41:45.418Z,91.16
2016-08-24T03:42:45.414Z,91.16
2016-08-24T03:43:45.410Z,91.25
2016-08-24T03:44:45.411Z,91.06
2016-08-24T03:45:45.411Z,91.35
2016-08-24T03:46:45.414Z,91.25
2016-08-24T03:47:44.706Z,92.02
2016-08-24T03:48:45.411Z,91.74
2016-08-24T03:49:45.411Z,91.83
2016-08-24T03:50:45.417Z,91.74
2016-08-24T03:51:45.411Z,91.97
2016-08-24T03:52:45.406Z,91.93
2016-08-24T03:53:45.407Z,91.74
2016-08-24T03:54:45.407Z,91.54
2016-08-24T03:55:45.407Z,91.4
2016-08-24T03:56:45.407Z,91.78
2016-08-24T03:57:45.407Z,91.97
2016-08-24T03:58:45.408Z,92.02
2016-08-24T03:59:45.408Z,91.74
2016-08-24T04:00:45.406Z,92.36
2016-08-24T04:01:45.407Z,92.59
2016-08-24T04:02:45.407Z,91.83
2016-08-24T04:03:45.406Z,92.5
2016-08-24T04:04:45.403Z,91.74
2016-08-24T04:05:45.404Z,92.45
2016-08-24T04:06:45.403Z,92.07
2016-08-24T04:07:45.404Z,92.07
2016-08-24T04:08:45.404Z,92.79
2016-08-24T04:09:45.403Z,92.55
2016-08-24T04:10:45.403Z,92.55
2016-08-24T04:11:44.700Z,92.45
2016-08-24T04:12:45.400Z,92.55
2016-08-24T04:13:45.400Z,92.21
2016-08-24T04:14:45.400Z,92.36
2016-08-24T04:15:45.399Z,93.07
2016-08-24T04:16:45.400Z,92.16
2016-08-24T04:17:44.696Z,93.12
2016-08-24T04:18:45.395Z,92.36
2016-08-24T04:19:45.397Z,92.83
2016-08-24T04:20:45.396Z,92.88
2016-08-24T04:21:45.397Z,92.74
2016-08-24T04:22:45.396Z,92.74
2016-08-24T04:23:45.399Z,92.55
2016-08-24T04:24:45.396Z,92.74
2016-08-24T04:25:44.694Z,92.74
2016-08-24T04:26:45.396Z,92.55
2016-08-24T04:27:45.393Z,92.64
2016-08-24T04:28:45.392Z,92.74
2016-08-24T04:29:45.392Z,93.02
2016-08-24T04:30:45.396Z,92.83
2016-08-24T04:31:45.392Z,93.31
2016-08-24T04:32:45.392Z,93.02
2016-08-24T04:33:45.493Z,93.21
2016-08-24T04:34:45.392Z,93.5
2016-08-24T04:35:45.388Z,93.45
2016-08-24T04:36:45.388Z,92.93
2016-08-24T04:37:45.389Z,93.31
2016-08-24T04:38:44.685Z,93.21
2016-08-24T04:39:45.389Z,93.26
2016-08-24T04:40:45.389Z,93.36
2016-08-24T04:41:45.389Z,93.16
2016-08-24T04:42:44.681Z,93.26
2016-08-24T04:43:45.384Z,93.98
2016-08-24T04:44:45.386Z,93.84
2016-08-24T04:45:45.389Z,94.7
2016-08-24T04:46:44.681Z,95.27
2016-08-24T04:47:45.385Z,95.32
2016-08-24T04:48:45.384Z,95.79
2016-08-24T04:49:45.380Z,95.84
2016-08-24T04:50:45.388Z,95.41
2016-08-24T04:51:45.381Z,95.51
2016-08-24T04:52:45.381Z,95.27
2016-08-24T04:53:45.381Z,95.22
2016-08-24T04:54:45.381Z,95.26
2016-08-24T04:55:45.381Z,93.88
2016-08-24T04:56:45.381Z,92.82
2016-08-24T04:57:45.382Z,92.19
2016-08-24T04:58:45.381Z,91.28
2016-08-24T04:59:45.382Z,90.08
2016-08-24T05:00:45.381Z,88.35
2016-08-24T05:01:45.382Z,86.28
2016-08-24T05:02:45.382Z,85.46
2016-08-24T05:03:45.381Z,82.96
2016-08-24T05:04:45.381Z,80.98
2016-08-24T05:05:45.386Z,79.67
2016-08-24T05:06:45.382Z,77.59
2016-08-24T05:07:45.382Z,75.8
2016-08-24T05:08:45.381Z,73.91
2016-08-24T05:09:45.382Z,72.18
2016-08-24T05:10:45.381Z,69.71
2016-08-24T05:11:44.678Z,68.49
2016-08-24T05:12:44.682Z,66.78
2016-08-24T05:13:45.386Z,64.79
2016-08-24T05:14:45.386Z,63.05
2016-08-24T05:15:45.385Z,61.25
2016-08-24T05:16:45.390Z,59.53
2016-08-24T05:17:45.390Z,58.21
2016-08-24T05:18:45.390Z,57.18
2016-08-24T05:19:45.390Z,55.46
2016-08-24T05:20:45.394Z,53.94
2016-08-24T05:21:45.394Z,52.32
2016-08-24T05:22:45.406Z,50.99
2016-08-24T05:23:45.398Z,49.95
2016-08-24T05:24:45.397Z,48.22
2016-08-24T05:25:45.398Z,47.2
2016-08-24T05:26:45.402Z,45.48
2016-08-24T05:27:45.401Z,44.43
2016-08-24T05:28:45.406Z,43.55
2016-08-24T05:29:45.406Z,42.5
2016-08-24T05:30:45.410Z,41.36
2016-08-24T05:31:45.410Z,40.21
2016-08-24T05:32:45.415Z,39.16
2016-08-24T05:33:45.419Z,38.01
2016-08-24T05:34:45.417Z,37.25
2016-08-24T05:35:45.423Z,36.49
2016-08-24T05:36:44.717Z,35.61
2016-08-24T05:37:45.426Z,34.55
2016-08-24T05:38:45.431Z,34.38
2016-08-24T05:39:45.431Z,33.02
2016-08-24T05:40:45.442Z,32.63
2016-08-24T05:41:45.439Z,31.57
2016-08-24T05:42:45.443Z,31
2016-08-24T05:43:45.443Z,30.43
2016-08-24T05:44:45.447Z,29.75
2016-08-24T05:45:44.747Z,29.08
2016-08-24T05:46:45.455Z,28.59
2016-08-24T05:47:45.470Z,28.31
2016-08-24T05:48:45.459Z,27.83
2016-08-24T05:49:44.764Z,27.45
2016-08-24T05:50:45.471Z,26.68
2016-08-24T05:51:45.471Z,26.01
2016-08-24T05:52:45.475Z,25.33
2016-08-24T05:53:44.776Z,24.96
2016-08-24T05:54:45.480Z,24.47
2016-08-24T05:55:45.484Z,23.99
2016-08-24T05:56:45.488Z,23.21
2016-08-24T05:57:45.492Z,22.34
2016-08-24T05:58:44.791Z,22.05
2016-08-24T05:59:45.500Z,21.37
2016-08-24T06:00:45.503Z,21.19
2016-08-24T06:01:44.803Z,20.61
2016-08-24T06:02:45.511Z,20.03
2016-08-24T06:03:45.515Z,19.93
2016-08-24T06:04:45.527Z,19.45
2016-08-24T06:05:45.524Z,19.26
2016-08-24T06:06:45.548Z,18.86
2016-08-24T06:07:45.536Z,18.77
2016-08-24T06:08:45.540Z,18.67
2016-08-24T06:09:45.548Z,18.48
2016-08-24T06:10:45.548Z,18.37
2016-08-24T06:11:45.564Z,18.18
2016-08-24T06:12:45.560Z,18.18
2016-08-24T06:13:44.861Z,17.4
2016-08-24T06:14:45.568Z,17.7
2016-08-24T06:15:45.584Z,17.21
2016-08-24T06:16:45.576Z,16.42
2016-08-24T06:17:45.585Z,16.43
2016-08-24T06:18:45.590Z,16.14
2016-08-24T06:19:45.596Z,16.05
2016-08-24T06:20:45.601Z,15.56
2016-08-24T06:21:45.605Z,15.46
2016-08-24T06:22:45.608Z,15.27
2016-08-24T06:23:45.620Z,15.17
2016-08-24T06:24:45.621Z,14.97
2016-08-24T06:25:45.629Z,14.38
2016-08-24T06:26:44.929Z,14.97
2016-08-24T06:27:45.637Z,14.98
2016-08-24T06:28:45.644Z,14.58
2016-08-24T06:29:45.649Z,14.39
2016-08-24T06:30:45.657Z,14.09
2016-08-24T06:31:44.956Z,14.09
2016-08-24T06:32:45.669Z,13.12
2016-08-24T06:33:45.073Z,13.32
2016-08-24T06:34:45.692Z,13.42
2016-08-24T06:35:45.685Z,13.12
2016-08-24T06:36:45.701Z,13.22
2016-08-24T06:37:45.696Z,13.13
2016-08-24T06:38:45.713Z,13.23
2016-08-24T06:39:45.709Z,12.83
2016-08-24T06:40:45.716Z,12.63
2016-08-24T06:41:45.725Z,13.13
2016-08-24T06:42:45.734Z,12.93
2016-08-24T06:43:45.737Z,12.43
2016-08-24T06:44:45.041Z,13.32
2016-08-24T06:45:45.751Z,13.02
2016-08-24T06:46:45.757Z,13.21
2016-08-24T06:47:45.765Z,13.01
2016-08-24T06:48:45.769Z,13.01
2016-08-24T06:49:45.776Z,13.12
2016-08-24T06:50:45.785Z,12.52
2016-08-24T06:51:45.085Z,12.43
2016-08-24T06:52:45.093Z,12.13
2016-08-24T06:53:45.805Z,12.04
2016-08-24T06:54:45.821Z,12.24
2016-08-24T06:55:45.817Z,12.44
2016-08-24T06:56:45.824Z,12.54
2016-08-24T06:57:45.833Z,11.94
2016-08-24T06:58:45.842Z,12.14
2016-08-24T06:59:45.849Z,12.34
2016-08-24T07:00:45.854Z,12.15
2016-08-24T07:01:45.861Z,11.74
2016-08-24T07:02:45.873Z,11.55
2016-08-24T07:03:45.877Z,11.35
2016-08-24T07:04:45.886Z,11.06
2016-08-24T07:05:45.190Z,11.16
2016-08-24T07:06:45.900Z,10.86
2016-08-24T07:07:45.909Z,10.57
2016-08-24T07:08:45.917Z,10.37
2016-08-24T07:09:46.224Z,10.57
2016-08-24T07:10:45.933Z,10.07
2016-08-24T07:11:45.943Z,10.47
2016-08-24T07:12:45.945Z,10.38
2016-08-24T07:13:45.249Z,10.47
2016-08-24T07:14:45.961Z,10.17
2016-08-24T07:15:45.975Z,9.97
2016-08-24T07:16:45.977Z,10.27
2016-08-24T07:17:45.991Z,10.08
2016-08-24T07:18:46.001Z,10.17
2016-08-24T07:19:46.001Z,10.28
2016-08-24T07:20:46.010Z,9.88
2016-08-24T07:21:45.317Z,9.48
2016-08-24T07:22:46.026Z,9.99
2016-08-24T07:23:46.040Z,9.59
2016-08-24T07:24:46.046Z,9.39
2016-08-24T07:25:46.061Z,9.3
2016-08-24T07:26:46.061Z,9
2016-08-24T07:27:46.070Z,9.4
2016-08-24T07:28:46.082Z,9.3
2016-08-24T07:29:46.086Z,9.5
2016-08-24T07:30:46.094Z,9.2
2016-08-24T07:31:46.150Z,9
2016-08-24T07:32:46.110Z,9.11
2016-08-24T07:33:45.622Z,8.51
2016-08-24T07:34:46.134Z,8.22
2016-08-24T07:35:45.434Z,8.12
2016-08-24T07:36:46.146Z,8.31
2016-08-24T07:37:46.155Z,7.92
2016-08-24T07:38:46.163Z,7.92
2016-08-24T07:39:46.171Z,8.12
2016-08-24T07:40:46.178Z,7.82
2016-08-24T07:41:46.191Z,7.92
2016-08-24T07:42:45.495Z,7.82
2016-08-24T07:43:46.209Z,7.72
2016-08-24T07:44:46.214Z,7.82
2016-08-24T07:45:46.222Z,7.82
2016-08-24T07:46:46.239Z,7.72
2016-08-24T07:47:46.242Z,7.52
2016-08-24T07:48:45.546Z,7.42
2016-08-24T07:49:46.258Z,7.32
2016-08-24T07:50:46.270Z,7.32
2016-08-24T07:51:46.278Z,7.32
2016-08-24T07:52:45.583Z,7.52
2016-08-24T07:53:46.294Z,7.82
2016-08-24T07:54:46.303Z,7.52
2016-08-24T07:55:46.314Z,7.52
2016-08-24T07:56:46.322Z,7.22
2016-08-24T07:57:46.338Z,7.42
2016-08-24T07:58:45.639Z,7.42
2016-08-24T07:59:46.347Z,7.62
2016-08-24T08:00:45.655Z,7.22
2016-08-24T08:01:46.367Z,7.42
2016-08-24T08:02:45.675Z,7.33
2016-08-24T08:03:45.680Z,7.13
2016-08-24T08:04:46.395Z,6.93
2016-08-24T08:05:46.403Z,6.63
2016-08-24T08:06:46.411Z,6.83
2016-08-24T08:07:46.424Z,6.53
2016-08-24T08:08:46.431Z,6.63
2016-08-24T08:09:46.439Z,6.53
2016-08-24T08:10:46.447Z,6.44
2016-08-24T08:11:46.455Z,6.34
2016-08-24T08:12:46.468Z,6.34
2016-08-24T08:13:46.475Z,6.24
2016-08-24T08:14:46.484Z,6.13
2016-08-24T08:15:46.492Z,6.73
2016-08-24T08:16:46.503Z,6.52
2016-08-24T08:17:45.808Z,6.82
2016-08-24T08:18:45.816Z,7.32
2016-08-24T08:19:46.528Z,7.82
2016-08-24T08:20:46.540Z,8.41
2016-08-24T08:21:45.848Z,8.11
2016-08-24T08:22:45.852Z,8.2
2016-08-24T08:23:45.860Z,8.7
2016-08-24T08:24:46.572Z,8.81
2016-08-24T08:25:46.589Z,9.3
2016-08-24T08:26:46.599Z,9.69
2016-08-24T08:27:46.600Z,9.78
2016-08-24T08:28:46.607Z,9.58
2016-08-24T08:29:46.616Z,9.19
2016-08-24T08:30:46.624Z,9.69
2016-08-24T08:31:46.641Z,9.39
2016-08-24T08:32:46.644Z,9.39
2016-08-24T08:33:46.648Z,9.99
2016-08-24T08:34:45.952Z,10.48
2016-08-24T08:35:46.669Z,10.57
2016-08-24T08:36:46.672Z,10.77
2016-08-24T08:37:46.684Z,10.57
2016-08-24T08:38:46.692Z,10.37
2016-08-24T08:39:46.701Z,10.08
2016-08-24T08:40:46.708Z,9.59
2016-08-24T08:41:46.012Z,8.99
2016-08-24T08:42:46.729Z,9.5
2016-08-24T08:43:46.029Z,9.39
2016-08-24T08:44:46.749Z,9.3
2016-08-24T08:45:46.749Z,9.59
2016-08-24T08:46:46.764Z,10.28
2016-08-24T08:47:46.765Z,10.28
2016-08-24T08:48:46.781Z,10.47
2016-08-24T08:49:46.781Z,11.36
2016-08-24T08:50:46.793Z,11.16
2016-08-24T08:51:46.793Z,10.86
2016-08-24T08:52:46.802Z,10.57
2016-08-24T08:53:46.810Z,10.58
2016-08-24T08:54:46.818Z,10.18
2016-08-24T08:55:46.824Z,10.19
2016-08-24T08:56:46.833Z,10.09
2016-08-24T08:57:46.137Z,9.89
2016-08-24T08:58:46.850Z,10.39
2016-08-24T08:59:46.853Z,10.28
2016-08-24T09:00:46.174Z,10.38
2016-08-24T09:01:46.168Z,10.38
2016-08-24T09:02:46.878Z,10.58
2016-08-24T09:03:46.886Z,10.77
2016-08-24T09:04:46.890Z,11.16
2016-08-24T09:05:46.898Z,11.46
2016-08-24T09:06:46.216Z,11.45
2016-08-24T09:07:46.909Z,11.36
2016-08-24T09:08:46.918Z,11.06
2016-08-24T09:09:46.926Z,11.07
2016-08-24T09:10:46.930Z,10.67
2016-08-24T09:11:46.938Z,10.37
2016-08-24T09:12:46.946Z,10.38
2016-08-24T09:13:46.955Z,10.48
2016-08-24T09:14:46.975Z,10.38
2016-08-24T09:15:46.966Z,10.68
2016-08-24T09:16:46.970Z,10.67
2016-08-24T09:17:46.982Z,11.17
2016-08-24T09:18:47.026Z,11.46
2016-08-24T09:19:46.991Z,11.75
2016-08-24T09:20:46.999Z,12.04
2016-08-24T09:21:47.002Z,12.35
2016-08-24T09:22:47.158Z,12.05
2016-08-24T09:23:47.014Z,11.76
2016-08-24T09:24:47.023Z,11.46
2016-08-24T09:25:47.027Z,11.07
2016-08-24T09:26:47.035Z,10.96
2016-08-24T09:27:47.039Z,11.17
2016-08-24T09:28:47.048Z,11.18
2016-08-24T09:29:46.351Z,10.98
2016-08-24T09:30:47.058Z,11.28
2016-08-24T09:31:47.063Z,11.48
2016-08-24T09:32:47.066Z,11.57
2016-08-24T09:33:46.422Z,12.16
2016-08-24T09:34:47.079Z,12.66
2016-08-24T09:35:46.382Z,12.75
2016-08-24T09:36:47.090Z,14.32
2016-08-24T09:37:46.391Z,15.09
2016-08-24T09:38:47.104Z,16.27
2016-08-24T09:39:47.107Z,17.52
2016-08-24T09:40:47.115Z,19.26
2016-08-24T09:41:47.120Z,20.72
2016-08-24T09:42:47.123Z,21.97
2016-08-24T09:43:47.127Z,22.83
2016-08-24T09:44:47.135Z,24.18
2016-08-24T09:45:46.434Z,24.95
2016-08-24T09:46:47.144Z,25.51
2016-08-24T09:47:47.156Z,26.68
2016-08-24T09:48:47.155Z,27.44
2016-08-24T09:49:46.460Z,28.69
2016-08-24T09:50:47.164Z,29.56
2016-08-24T09:51:47.171Z,30.51
2016-08-24T09:52:47.175Z,31.96
2016-08-24T09:53:47.182Z,32.14
2016-08-24T09:54:47.184Z,33.01
2016-08-24T09:55:47.191Z,33.58
2016-08-24T09:56:47.196Z,34.55
2016-08-24T09:57:46.496Z,34.92
2016-08-24T09:58:47.204Z,35.88
2016-08-24T09:59:47.224Z,36.08
2016-08-24T10:00:47.216Z,36.35
2016-08-24T10:01:47.219Z,36.84
2016-08-24T10:02:47.224Z,37.13
2016-08-24T10:03:47.228Z,37.7
2016-08-24T10:04:46.528Z,37.99
2016-08-24T10:05:47.240Z,38.46
2016-08-24T10:06:46.540Z,38.26
2016-08-24T10:07:47.249Z,38.26
2016-08-24T10:08:47.252Z,38.26
2016-08-24T10:09:47.256Z,38.65
2016-08-24T10:10:47.260Z,38.93
2016-08-24T10:11:47.272Z,39.59
2016-08-24T10:12:47.280Z,40.27
2016-08-24T10:13:47.276Z,40.73
2016-08-24T10:14:47.327Z,41.22
2016-08-24T10:15:46.580Z,41.59
2016-08-24T10:16:47.288Z,42.08
2016-08-24T10:17:47.301Z,42.36
2016-08-24T10:18:47.299Z,42.56
2016-08-24T10:19:46.600Z,42.76
2016-08-24T10:20:47.308Z,42.54
2016-08-24T10:21:47.312Z,42.83
2016-08-24T10:22:46.612Z,43.02
2016-08-24T10:23:47.321Z,43.51
2016-08-24T10:24:47.324Z,43.32
2016-08-24T10:25:47.331Z,43.02
2016-08-24T10:26:47.331Z,43.02
2016-08-24T10:27:47.337Z,43.32
2016-08-24T10:28:46.636Z,43.63
2016-08-24T10:29:46.641Z,43.73
2016-08-24T10:30:47.353Z,44.12
2016-08-24T10:31:47.357Z,44.02
2016-08-24T10:32:47.361Z,44.43
2016-08-24T10:33:46.661Z,43.46
2016-08-24T10:34:47.369Z,44.02
2016-08-24T10:35:46.669Z,43.92
2016-08-24T10:36:47.376Z,44.02
2016-08-24T10:37:47.381Z,44.41
2016-08-24T10:38:47.393Z,44.02
2016-08-24T10:39:47.388Z,44.21
2016-08-24T10:40:47.392Z,44.21
2016-08-24T10:41:47.397Z,44.99
2016-08-24T10:42:47.401Z,44.89
2016-08-24T10:43:47.405Z,45.09
2016-08-24T10:44:47.409Z,45.57
2016-08-24T10:45:47.412Z,46.06
2016-08-24T10:46:47.417Z,46.25
2016-08-24T10:47:47.420Z,46.06
2016-08-24T10:48:47.425Z,46.25
2016-08-24T10:49:47.430Z,45.97
2016-08-24T10:50:47.433Z,46.45
2016-08-24T10:51:47.436Z,46.55
2016-08-24T10:52:47.441Z,46.94
2016-08-24T10:53:47.444Z,46.74
2016-08-24T10:54:47.449Z,46.35
2016-08-24T10:55:47.453Z,46.15
2016-08-24T10:56:46.753Z,46.18
2016-08-24T10:57:46.758Z,45.98
2016-08-24T10:58:47.465Z,46.28
2016-08-24T10:59:47.469Z,46.37
2016-08-24T11:00:47.473Z,46.28
2016-08-24T11:01:47.478Z,45.89
2016-08-24T11:02:46.777Z,45.79
2016-08-24T11:03:47.485Z,45.6
2016-08-24T11:04:47.506Z,45.79
2016-08-24T11:05:47.493Z,45.69
2016-08-24T11:06:47.497Z,45.89
2016-08-24T11:07:47.502Z,46.28
2016-08-24T11:08:47.506Z,45.91
2016-08-24T11:09:47.506Z,45.79
2016-08-24T11:10:47.514Z,45.79
2016-08-24T11:11:47.518Z,45.6
2016-08-24T11:12:46.814Z,46.4
2016-08-24T11:13:47.522Z,46.69
2016-08-24T11:14:47.526Z,46.98
2016-08-24T11:15:46.825Z,47.37
2016-08-24T11:16:47.554Z,46.69
2016-08-24T11:17:47.538Z,46.4
2016-08-24T11:18:47.556Z,45.98
2016-08-24T11:19:47.546Z,45.89
2016-08-24T11:20:47.550Z,46.18
2016-08-24T11:21:47.553Z,46.37
2016-08-24T11:22:47.558Z,46.47
2016-08-24T11:23:47.562Z,46.37
2016-08-24T11:24:47.566Z,46.57
2016-08-24T11:25:47.571Z,46.67
2016-08-24T11:26:47.575Z,47.05
2016-08-24T11:27:47.574Z,47.15
2016-08-24T11:28:47.578Z,47.34
2016-08-24T11:29:47.583Z,47.74
2016-08-24T11:30:47.586Z,47.64
2016-08-24T11:31:46.885Z,47.54
2016-08-24T11:32:47.595Z,47.74
2016-08-24T11:33:47.698Z,47.76
2016-08-24T11:34:46.902Z,47.86
2016-08-24T11:35:47.607Z,47.76
2016-08-24T11:36:46.907Z,46.98
2016-08-24T11:37:46.906Z,46.96
2016-08-24T11:38:47.615Z,47.44
2016-08-24T11:39:46.915Z,47.96
2016-08-24T11:40:46.919Z,47.93
2016-08-24T11:41:46.927Z,47.37
2016-08-24T11:42:47.631Z,47.66
2016-08-24T11:43:47.635Z,47.54
2016-08-24T11:44:47.653Z,47.37
2016-08-24T11:45:47.639Z,47.86
2016-08-24T11:46:47.643Z,48.03
2016-08-24T11:47:47.647Z,47.86
2016-08-24T11:48:47.650Z,47.96
2016-08-24T11:49:47.655Z,47.86
2016-08-24T11:50:46.954Z,47.96
2016-08-24T11:51:46.959Z,47.86
2016-08-24T11:52:46.963Z,47.86
2016-08-24T11:53:47.671Z,48.05
2016-08-24T11:54:47.674Z,47.76
2016-08-24T11:55:47.678Z,47.76
2016-08-24T11:56:47.680Z,47.86
2016-08-24T11:57:47.682Z,48.05
2016-08-24T11:58:46.983Z,48.34
2016-08-24T11:59:47.691Z,48.93
2016-08-24T12:00:47.695Z,48.93
2016-08-24T12:01:47.699Z,48.44
2016-08-24T12:02:47.704Z,48.15
2016-08-24T12:03:47.703Z,47.76
2016-08-24T12:04:47.005Z,48.05
2016-08-24T12:05:47.711Z,47.76
2016-08-24T12:06:47.012Z,47.96
2016-08-24T12:07:47.720Z,48.63
2016-08-24T12:08:47.723Z,49
2016-08-24T12:09:47.739Z,48.93
2016-08-24T12:10:47.733Z,48.73
2016-08-24T12:11:47.732Z,48.71
2016-08-24T12:12:47.736Z,49.1
2016-08-24T12:13:47.035Z,49.19
2016-08-24T12:14:47.743Z,49
2016-08-24T12:15:47.759Z,49.1
2016-08-24T12:16:47.044Z,49.39
2016-08-24T12:17:47.751Z,49.1
2016-08-24T12:18:47.755Z,49.78
2016-08-24T12:19:47.061Z,49.12
2016-08-24T12:20:47.764Z,49.41
2016-08-24T12:21:47.767Z,49
2016-08-24T12:22:47.769Z,48.71
2016-08-24T12:23:47.772Z,49
2016-08-24T12:24:47.776Z,48.71
2016-08-24T12:25:47.781Z,49.49
2016-08-24T12:26:47.785Z,49.68
2016-08-24T12:27:47.783Z,49.87
2016-08-24T12:28:47.793Z,49.87
2016-08-24T12:29:47.100Z,49.29
2016-08-24T12:30:47.092Z,49.12
2016-08-24T12:31:47.096Z,48.63
2016-08-24T12:32:47.804Z,48.83
2016-08-24T12:33:47.804Z,48.73
2016-08-24T12:34:47.809Z,49.02
2016-08-24T12:35:47.813Z,49.12
2016-08-24T12:36:47.112Z,48.93
2016-08-24T12:37:47.821Z,48.73
2016-08-24T12:38:47.824Z,48.93
2016-08-24T12:39:47.828Z,48.83
2016-08-24T12:40:47.829Z,48.93
2016-08-24T12:41:47.833Z,49.41
2016-08-24T12:42:47.837Z,49.61
2016-08-24T12:43:47.840Z,49.61
2016-08-24T12:44:47.844Z,49.32
2016-08-24T12:45:47.845Z,49.9
2016-08-24T12:46:47.160Z,49.8
2016-08-24T12:47:47.853Z,49.61
2016-08-24T12:48:47.857Z,49.49
2016-08-24T12:49:47.868Z,49.68
2016-08-24T12:50:47.861Z,49.68
2016-08-24T12:51:47.865Z,49.68
2016-08-24T12:52:47.869Z,49.87
2016-08-24T12:53:47.873Z,50.26
2016-08-24T12:54:47.877Z,49.87
2016-08-24T12:55:47.881Z,49.61
2016-08-24T12:56:47.881Z,48.8
2016-08-24T12:57:47.885Z,48.71